Fort Bragg AAF, North Carolina
Current Conditions -  °F | °C
As of 5:58 PM on Tuesday 27 Jan 2015 (Local Time) from KFBG Reporting Station
Clear Clear  
Wind Chill: 38°   Ceiling: Unl
Heat Index: 41°   Visibility: 10mi
Dew Point: 14°   Wind: 5mph
Humidity: 34%   Direction: 330°NNW
Pressure: 29.86"   Gusts: NA
Location:  35.13°N, 78.93°W
Report Text: KFBG 272258Z AUTO 33004KT 10SM CLR 05/M10 A2986 RMK AO2 SLP116 T00491098
Loading
Personal Weather Stations






























Interactive Weather Map New forecast layout! Learn more

10-Day Weather Forecast

Advertisements
Track Severe Weather on mobile